createdAt,value
2022-12-20T00:01:31.247Z,2.20
2022-12-20T00:04:03.194Z,2.13
2022-12-20T00:06:29.877Z,2.00
2022-12-20T00:08:58.700Z,1.90
2022-12-20T00:11:26.748Z,1.92
2022-12-20T00:13:53.284Z,1.88
2022-12-20T00:16:23.159Z,2.10
2022-12-20T00:18:54.940Z,1.90
2022-12-20T00:21:22.475Z,1.80
2022-12-20T00:23:49.712Z,2.05
2022-12-20T00:26:18.216Z,2.05
2022-12-20T00:28:45.434Z,2.03
2022-12-20T00:31:17.108Z,2.20
2022-12-20T00:33:47.025Z,1.90
2022-12-20T00:36:13.811Z,1.80
2022-12-20T00:38:40.612Z,1.75
2022-12-20T00:41:10.699Z,2.22
2022-12-20T00:43:38.230Z,1.88
2022-12-20T00:46:05.840Z,2.00
2022-12-20T00:48:32.829Z,2.17
2022-12-20T00:51:01.525Z,2.10
2022-12-20T00:53:28.478Z,1.85
2022-12-20T00:55:55.047Z,2.00
2022-12-20T00:58:21.613Z,1.65
2022-12-20T01:00:54.084Z,1.95
2022-12-20T01:03:23.150Z,2.08
2022-12-20T01:05:53.598Z,1.98
2022-12-20T01:08:21.047Z,2.00
2022-12-20T01:10:48.051Z,1.80
2022-12-20T01:13:14.567Z,2.17
2022-12-20T01:15:41.056Z,2.03
2022-12-20T01:18:07.527Z,2.00
2022-12-20T01:20:33.950Z,2.25
2022-12-20T01:23:00.501Z,1.90
2022-12-20T01:25:26.970Z,1.63
2022-12-20T01:27:53.415Z,2.00
2022-12-20T01:30:19.855Z,2.00
2022-12-20T01:32:46.277Z,1.98
2022-12-20T01:35:12.727Z,1.80
2022-12-20T01:37:39.150Z,1.77
2022-12-20T01:40:06.470Z,2.00
2022-12-20T01:42:32.937Z,1.90
2022-12-20T01:44:59.711Z,1.88
2022-12-20T01:47:29.449Z,2.10
2022-12-20T01:49:59.040Z,1.90
2022-12-20T01:52:37.077Z,1.90
2022-12-20T01:55:18.201Z,2.15
2022-12-20T01:57:51.803Z,1.92
2022-12-20T02:00:19.430Z,1.75
2022-12-20T02:02:48.236Z,1.83
2022-12-20T02:05:16.960Z,1.85
2022-12-20T02:07:45.440Z,1.90
2022-12-20T02:10:15.392Z,2.13
2022-12-20T02:12:44.642Z,2.00
2022-12-20T02:15:20.335Z,1.90
2022-12-20T02:18:08.336Z,1.92
2022-12-20T02:20:43.814Z,2.05
2022-12-20T02:23:37.809Z,1.88
2022-12-20T02:26:32.487Z,1.80
2022-12-20T02:29:01.821Z,1.73
2022-12-20T02:31:34.538Z,1.98
2022-12-20T02:34:03.083Z,1.90
2022-12-20T02:36:29.812Z,1.88
2022-12-20T02:38:56.292Z,1.90
2022-12-20T02:41:34.438Z,2.05
2022-12-20T02:44:29.587Z,1.63
2022-12-20T02:47:00.454Z,1.80
2022-12-20T02:49:31.240Z,2.20
2022-12-20T02:51:59.856Z,1.75
2022-12-20T02:54:26.782Z,2.10
2022-12-20T02:57:01.820Z,2.17
2022-12-20T02:59:34.429Z,1.85
2022-12-20T03:02:02.493Z,1.73
2022-12-20T03:04:33.781Z,1.95
2022-12-20T03:07:01.515Z,2.13
2022-12-20T03:09:30.027Z,2.10
2022-12-20T03:11:56.506Z,2.00
2022-12-20T03:14:23.078Z,2.05
2022-12-20T03:16:49.558Z,1.80
2022-12-20T03:19:16.631Z,1.90
2022-12-20T03:21:43.455Z,1.70
2022-12-20T03:24:11.242Z,1.45
2022-12-20T03:26:37.876Z,1.75
2022-12-20T03:29:04.862Z,1.83
2022-12-20T03:31:31.565Z,2.00
2022-12-20T03:33:58.256Z,2.10
2022-12-20T03:36:24.975Z,1.98
2022-12-20T03:38:52.423Z,1.67
2022-12-20T03:41:21.254Z,1.88
2022-12-20T03:43:48.768Z,1.85
2022-12-20T03:46:16.154Z,1.80
2022-12-20T03:48:43.298Z,1.88
2022-12-20T03:51:10.088Z,1.83
2022-12-20T03:53:36.543Z,1.52
2022-12-20T03:56:03.017Z,1.83
2022-12-20T03:58:29.466Z,2.10
2022-12-20T04:00:57.634Z,1.80
2022-12-20T04:03:24.174Z,1.80
2022-12-20T04:05:50.688Z,1.88
2022-12-20T04:08:17.169Z,1.90
2022-12-20T04:11:02.203Z,1.60
2022-12-20T04:13:28.765Z,1.80
2022-12-20T04:16:00.006Z,1.63
2022-12-20T04:18:27.288Z,1.67
2022-12-20T04:20:54.143Z,1.70
2022-12-20T04:23:20.620Z,1.70
2022-12-20T04:25:47.121Z,1.73
2022-12-20T04:28:13.530Z,1.80
2022-12-20T04:30:40.017Z,1.70
2022-12-20T04:33:06.545Z,1.70
2022-12-20T04:35:33.007Z,1.75
2022-12-20T04:37:59.462Z,1.73
2022-12-20T04:40:25.894Z,1.83
2022-12-20T04:42:52.378Z,2.38
2022-12-20T04:45:18.890Z,1.88
2022-12-20T04:47:45.323Z,1.85
2022-12-20T04:50:11.969Z,1.60
2022-12-20T04:52:56.935Z,1.70
2022-12-20T04:55:23.386Z,1.60
2022-12-20T04:57:49.813Z,1.63
2022-12-20T05:00:17.168Z,2.03
2022-12-20T05:02:43.832Z,1.90
2022-12-20T05:05:10.491Z,1.58
2022-12-20T05:07:37.336Z,1.70
2022-12-20T05:10:04.770Z,1.90
2022-12-20T05:12:31.222Z,1.67
2022-12-20T05:14:57.683Z,1.58
2022-12-20T05:17:24.138Z,1.70
2022-12-20T05:19:52.540Z,1.80
2022-12-20T05:22:37.588Z,1.70
2022-12-20T05:25:22.972Z,1.80
2022-12-20T05:27:49.655Z,1.50
2022-12-20T05:30:16.186Z,1.50
2022-12-20T05:32:42.621Z,1.70
2022-12-20T05:35:09.395Z,1.92
2022-12-20T05:37:35.823Z,1.77
2022-12-20T05:40:04.825Z,1.80
2022-12-20T05:42:31.425Z,1.60
2022-12-20T05:44:57.888Z,1.70
2022-12-20T05:47:24.899Z,1.88
2022-12-20T05:49:51.445Z,1.75
2022-12-20T05:52:17.907Z,1.73
2022-12-20T05:54:44.406Z,1.67
2022-12-20T05:57:10.949Z,2.15
2022-12-20T05:59:37.850Z,1.80
2022-12-20T06:02:04.563Z,1.77
2022-12-20T06:04:32.153Z,1.90
2022-12-20T06:06:59.864Z,1.80
2022-12-20T06:09:26.335Z,1.88
2022-12-20T06:11:53.241Z,1.95
2022-12-20T06:14:19.789Z,1.45
2022-12-20T06:16:46.926Z,1.77
2022-12-20T06:19:20.824Z,1.73
2022-12-20T06:21:48.123Z,1.50
2022-12-20T06:24:14.594Z,1.63
2022-12-20T06:26:41.618Z,1.63
2022-12-20T06:29:10.176Z,1.85
2022-12-20T06:31:36.729Z,1.63
2022-12-20T06:34:03.196Z,1.70
2022-12-20T06:36:29.654Z,1.60
2022-12-20T06:38:56.107Z,1.45
2022-12-20T06:41:22.618Z,1.60
2022-12-20T06:43:49.370Z,1.60
2022-12-20T06:46:16.012Z,1.73
2022-12-20T06:48:42.479Z,1.90
2022-12-20T06:51:08.958Z,1.40
2022-12-20T06:53:35.398Z,1.73
2022-12-20T06:56:01.969Z,1.70
2022-12-20T06:58:28.507Z,1.60
2022-12-20T07:00:55.091Z,1.50
2022-12-20T07:03:22.265Z,2.05
2022-12-20T07:05:53.400Z,1.50
2022-12-20T07:08:21.175Z,1.58
2022-12-20T07:10:48.085Z,1.77
2022-12-20T07:13:14.696Z,1.60
2022-12-20T07:15:41.257Z,1.80
2022-12-20T07:18:07.703Z,2.25
2022-12-20T07:20:34.383Z,2.63
2022-12-20T07:23:00.849Z,3.45
2022-12-20T07:25:27.449Z,3.50
2022-12-20T07:27:53.961Z,3.35
2022-12-20T07:32:51.248Z,3.45
2022-12-20T07:35:18.419Z,4.00
2022-12-20T07:37:44.902Z,4.97
2022-12-20T07:40:12.085Z,5.20
2022-12-20T07:42:43.007Z,3.20
2022-12-20T07:45:13.002Z,4.10
2022-12-20T07:47:39.512Z,3.88
2022-12-20T07:50:06.792Z,3.38
2022-12-20T07:52:35.165Z,3.70
2022-12-20T07:55:05.369Z,3.78
2022-12-20T07:57:36.618Z,3.00
2022-12-20T08:00:05.225Z,3.22
2022-12-20T08:02:37.238Z,3.38
2022-12-20T08:05:07.660Z,3.38
2022-12-20T08:07:34.658Z,3.17
2022-12-20T08:10:01.290Z,3.13
2022-12-20T08:12:30.178Z,3.10
2022-12-20T08:14:58.389Z,2.80
2022-12-20T08:17:25.183Z,2.97
2022-12-20T08:19:52.124Z,2.85
2022-12-20T08:22:19.288Z,2.70
2022-12-20T08:24:46.097Z,2.97
2022-12-20T08:27:12.569Z,2.95
2022-12-20T08:29:39.230Z,2.72
2022-12-20T08:32:05.765Z,4.03
2022-12-20T08:34:32.545Z,18.55
2022-12-20T08:36:59.637Z,15.13
2022-12-20T08:39:26.074Z,10.25
2022-12-20T08:41:52.577Z,15.52
2022-12-20T08:44:19.294Z,25.75
2022-12-20T08:46:45.817Z,21.05
2022-12-20T08:49:12.338Z,24.45
2022-12-20T08:51:38.854Z,28.60
2022-12-20T08:54:05.461Z,43.85
2022-12-20T08:56:31.990Z,54.17
2022-12-20T08:58:58.410Z,36.05
2022-12-20T09:01:26.892Z,71.35
2022-12-20T09:03:53.465Z,75.22
2022-12-20T09:06:22.075Z,61.42
2022-12-20T09:08:49.314Z,59.25
2022-12-20T09:11:18.294Z,105.70
2022-12-20T09:13:47.029Z,84.47
2022-12-20T09:16:15.704Z,106.68
2022-12-20T09:18:42.577Z,110.30
2022-12-20T09:21:10.964Z,111.93
2022-12-20T09:23:38.189Z,110.70
2022-12-20T09:26:11.907Z,115.07
2022-12-20T09:28:39.205Z,106.88
2022-12-20T09:31:07.788Z,98.25
2022-12-20T09:33:35.561Z,124.60
2022-12-20T09:36:02.892Z,134.70
2022-12-20T09:38:31.131Z,104.15
2022-12-20T09:41:02.825Z,104.43
2022-12-20T09:43:29.859Z,111.07
2022-12-20T09:45:59.578Z,102.35
2022-12-20T09:48:32.562Z,99.00
2022-12-20T09:51:10.941Z,96.70
2022-12-20T09:53:44.414Z,90.35
2022-12-20T09:56:16.336Z,92.78
2022-12-20T09:58:45.665Z,91.67
2022-12-20T10:01:25.427Z,89.90
2022-12-20T10:03:54.319Z,87.68
2022-12-20T10:06:26.526Z,87.60
2022-12-20T10:09:02.042Z,82.90
2022-12-20T10:11:54.390Z,81.72
2022-12-20T10:14:46.676Z,82.35
2022-12-20T10:17:32.546Z,78.05
2022-12-20T10:20:20.903Z,93.40
2022-12-20T10:22:57.372Z,106.15
2022-12-20T10:25:30.572Z,151.20
2022-12-20T10:27:58.188Z,132.95
2022-12-20T10:30:27.585Z,123.63
2022-12-20T10:32:56.844Z,119.57
2022-12-20T10:35:34.106Z,102.45
2022-12-20T10:38:12.602Z,102.10
2022-12-20T10:41:19.395Z,102.88
2022-12-20T10:43:44.385Z,114.28
2022-12-20T10:46:12.063Z,114.13
2022-12-20T10:48:40.983Z,117.93
2022-12-20T10:51:15.322Z,116.97
2022-12-20T10:54:03.989Z,117.00
2022-12-20T10:56:34.220Z,115.22
2022-12-20T10:59:03.742Z,115.07
2022-12-20T11:01:36.734Z,112.45
2022-12-20T11:04:26.116Z,108.35
2022-12-20T11:06:52.811Z,164.45
2022-12-20T11:09:24.444Z,129.02
2022-12-20T11:12:13.720Z,155.82
2022-12-20T11:14:42.285Z,159.32
2022-12-20T11:17:11.459Z,145.20
2022-12-20T11:19:37.857Z,141.52
2022-12-20T11:22:21.610Z,140.73
2022-12-20T11:25:14.027Z,134.00
2022-12-20T11:27:49.535Z,124.60
2022-12-20T11:30:20.719Z,125.03
2022-12-20T11:33:22.230Z,122.15
2022-12-20T11:36:11.680Z,117.68
2022-12-20T11:39:11.010Z,114.88
2022-12-20T11:41:37.785Z,109.35
2022-12-20T11:44:25.157Z,106.60
2022-12-20T11:47:17.114Z,104.07
2022-12-20T11:50:02.991Z,100.65
2022-12-20T11:52:39.085Z,97.63
2022-12-20T11:55:32.636Z,95.88
2022-12-20T11:58:18.517Z,88.57
2022-12-20T12:01:01.981Z,85.78
2022-12-20T12:03:39.805Z,82.72
2022-12-20T12:06:12.430Z,78.90
2022-12-20T12:08:54.524Z,76.47
2022-12-20T12:12:05.255Z,72.85
2022-12-20T12:14:26.059Z,70.78
2022-12-20T12:16:57.418Z,66.07
2022-12-20T12:19:26.475Z,67.68
2022-12-20T12:22:02.004Z,64.00
2022-12-20T12:24:52.357Z,58.90
2022-12-20T12:27:25.250Z,58.42
2022-12-20T12:29:54.408Z,57.08
2022-12-20T12:32:33.253Z,55.90
2022-12-20T12:35:24.284Z,55.95
2022-12-20T12:38:28.103Z,54.03
2022-12-20T12:41:13.143Z,53.58
2022-12-20T12:43:58.356Z,49.08
2022-12-20T12:46:36.163Z,48.40
2022-12-20T12:49:05.987Z,45.47
2022-12-20T12:51:38.937Z,43.95
2022-12-20T12:54:14.544Z,43.75
2022-12-20T12:56:46.197Z,41.33
2022-12-20T12:59:13.340Z,41.22
2022-12-20T13:02:15.576Z,37.42
2022-12-20T13:05:10.550Z,34.93
2022-12-20T13:07:36.965Z,33.75
2022-12-20T13:10:25.204Z,31.90
2022-12-20T13:12:52.498Z,31.52
2022-12-20T13:15:22.035Z,31.13
2022-12-20T13:17:59.442Z,29.95
2022-12-20T13:20:27.592Z,29.23
2022-12-20T13:23:09.241Z,29.92
2022-12-20T13:25:41.426Z,28.23
2022-12-20T13:28:21.651Z,27.30
2022-12-20T13:31:08.255Z,26.02
2022-12-20T13:33:48.599Z,27.42
2022-12-20T13:36:37.755Z,26.73
2022-12-20T13:39:33.258Z,24.20
2022-12-20T13:42:18.057Z,23.80
2022-12-20T13:44:48.096Z,23.83
2022-12-20T13:47:21.390Z,23.58
2022-12-20T13:49:47.892Z,23.38
2022-12-20T13:52:20.123Z,22.70
2022-12-20T13:54:49.752Z,22.00
2022-12-20T13:57:18.723Z,21.83
2022-12-20T13:59:47.862Z,22.55
2022-12-20T14:02:24.889Z,20.85
2022-12-20T14:05:00.224Z,20.10
2022-12-20T14:07:29.647Z,19.35
2022-12-20T14:09:59.706Z,19.80
2022-12-20T14:12:31.488Z,18.60
2022-12-20T14:15:03.114Z,17.05
2022-12-20T14:17:33.573Z,17.70
2022-12-20T14:20:02.860Z,17.40
2022-12-20T14:22:30.541Z,16.33
2022-12-20T14:24:57.170Z,16.40
2022-12-20T14:27:24.289Z,16.10
2022-12-20T14:29:52.148Z,15.52
2022-12-20T14:32:20.370Z,15.32
2022-12-20T14:34:47.746Z,15.63
2022-12-20T14:37:32.049Z,14.95
2022-12-20T14:40:05.171Z,14.60
2022-12-20T14:42:37.079Z,14.90
2022-12-20T14:45:25.913Z,13.83
2022-12-20T14:48:06.633Z,12.57
2022-12-20T14:50:36.137Z,13.73
2022-12-20T14:53:03.391Z,13.40
2022-12-20T14:55:38.892Z,13.10
2022-12-20T14:58:27.971Z,12.85
2022-12-20T15:01:02.139Z,11.82
2022-12-20T15:03:29.217Z,12.25
2022-12-20T15:05:58.025Z,11.48
2022-12-20T15:08:32.329Z,11.80
2022-12-20T15:11:03.266Z,11.10
2022-12-20T15:13:37.213Z,11.43
2022-12-20T15:16:12.883Z,10.82
2022-12-20T15:18:39.837Z,11.18
2022-12-20T15:21:19.795Z,11.23
2022-12-20T15:23:48.458Z,11.07
2022-12-20T15:26:16.762Z,10.25
2022-12-20T15:28:43.550Z,10.68
2022-12-20T15:31:14.736Z,10.38
2022-12-20T15:33:43.220Z,9.88
2022-12-20T15:36:17.073Z,9.70
2022-12-20T15:41:32.664Z,10.00
2022-12-20T15:44:07.306Z,9.43
2022-12-20T15:46:34.047Z,9.38
2022-12-20T15:49:00.555Z,10.05
2022-12-20T15:51:30.565Z,8.88
2022-12-20T15:53:57.421Z,8.82
2022-12-20T15:56:25.357Z,8.57
2022-12-20T15:58:52.811Z,9.13
2022-12-20T16:01:40.669Z,9.48
2022-12-20T16:04:13.659Z,8.32
2022-12-20T16:06:40.243Z,8.45
2022-12-20T16:09:06.834Z,7.88
2022-12-20T16:11:33.403Z,9.05
2022-12-20T16:14:00.280Z,7.93
2022-12-20T16:16:29.615Z,7.70
2022-12-20T16:18:56.463Z,7.32
2022-12-20T16:21:25.378Z,7.55
2022-12-20T16:23:52.894Z,6.97
2022-12-20T16:26:21.684Z,7.88
2022-12-20T16:28:49.700Z,7.40
2022-12-20T16:31:30.943Z,7.35
2022-12-20T16:33:59.612Z,6.78
2022-12-20T16:36:27.025Z,7.07
2022-12-20T16:38:54.207Z,7.25
2022-12-20T16:41:31.828Z,6.55
2022-12-20T16:44:01.231Z,6.30
2022-12-20T16:46:30.425Z,6.72
2022-12-20T16:48:58.635Z,6.50
2022-12-20T16:51:40.044Z,7.03
2022-12-20T16:54:26.728Z,6.30
2022-12-20T16:56:57.478Z,6.30
2022-12-20T16:59:25.237Z,6.47
2022-12-20T17:01:54.409Z,5.85
2022-12-20T17:04:21.956Z,6.05
2022-12-20T17:06:49.030Z,6.00
2022-12-20T17:12:04.490Z,5.53
2022-12-20T17:14:31.079Z,6.13
2022-12-20T17:16:57.560Z,5.35
2022-12-20T17:19:24.119Z,6.15
2022-12-20T17:24:34.486Z,5.18
2022-12-20T17:27:00.993Z,5.25
2022-12-20T17:29:27.433Z,5.75
2022-12-20T17:31:54.066Z,5.13
2022-12-20T17:34:26.353Z,5.30
2022-12-20T17:36:54.892Z,5.00
2022-12-20T17:39:22.523Z,4.90
2022-12-20T17:41:49.608Z,4.97
2022-12-20T17:44:27.407Z,4.70
2022-12-20T17:46:55.902Z,4.65
2022-12-20T17:49:23.185Z,4.82
2022-12-20T17:51:51.494Z,4.60
2022-12-20T17:54:28.878Z,5.13
2022-12-20T17:56:57.438Z,4.43
2022-12-20T17:59:25.880Z,4.25
2022-12-20T18:01:52.655Z,4.53
2022-12-20T18:04:19.336Z,4.53
2022-12-20T18:06:46.038Z,4.20
2022-12-20T18:09:15.545Z,4.40
2022-12-20T18:11:42.408Z,3.80
2022-12-20T18:14:09.198Z,3.97
2022-12-20T18:16:35.909Z,4.18
2022-12-20T18:19:02.787Z,4.13
2022-12-20T18:21:29.308Z,4.03
2022-12-20T18:23:55.876Z,4.07
2022-12-20T18:26:28.519Z,4.40
2022-12-20T18:29:00.151Z,3.70
2022-12-20T18:31:29.581Z,3.85
2022-12-20T18:33:58.212Z,3.30
2022-12-20T18:36:27.676Z,4.22
2022-12-20T18:38:55.655Z,3.58
2022-12-20T18:41:24.518Z,3.42
2022-12-20T18:43:52.322Z,3.22
2022-12-20T18:46:21.210Z,3.75
2022-12-20T18:48:51.160Z,3.50
2022-12-20T18:51:20.021Z,3.67
2022-12-20T18:53:47.760Z,3.28
2022-12-20T18:56:24.874Z,3.20
2022-12-20T18:58:51.769Z,3.53
2022-12-20T19:01:22.446Z,3.42
2022-12-20T19:03:50.879Z,3.83
2022-12-20T19:06:18.057Z,3.58
2022-12-20T19:08:47.377Z,3.22
2022-12-20T19:11:17.040Z,3.42
2022-12-20T19:13:44.073Z,2.88
2022-12-20T19:16:11.894Z,3.15
2022-12-20T19:18:38.559Z,3.58
2022-12-20T19:21:10.572Z,2.97
2022-12-20T19:23:38.379Z,2.60
2022-12-20T19:26:11.822Z,3.15
2022-12-20T19:28:39.364Z,3.00
2022-12-20T19:31:15.680Z,2.90
2022-12-20T19:33:47.717Z,3.42
2022-12-20T19:36:17.139Z,2.80
2022-12-20T19:38:45.203Z,2.80
2022-12-20T19:41:11.930Z,2.88
2022-12-20T19:43:38.613Z,2.90
2022-12-20T19:46:05.434Z,3.00
2022-12-20T19:48:33.242Z,2.70
2022-12-20T19:51:04.358Z,2.60
2022-12-20T19:53:31.017Z,2.85
2022-12-20T19:55:57.963Z,2.88
2022-12-20T19:58:24.537Z,2.67
2022-12-20T20:00:53.025Z,2.72
2022-12-20T20:03:22.670Z,2.80
2022-12-20T20:05:49.588Z,3.15
2022-12-20T20:08:16.731Z,2.30
2022-12-20T20:10:44.643Z,2.90
2022-12-20T20:13:11.456Z,2.80
2022-12-20T20:15:38.038Z,2.28
2022-12-20T20:18:04.610Z,2.38
2022-12-20T20:20:31.282Z,2.65
2022-12-20T20:22:57.750Z,2.72
2022-12-20T20:25:24.209Z,2.60
2022-12-20T20:27:50.736Z,2.20
2022-12-20T20:30:17.374Z,2.20
2022-12-20T20:32:43.959Z,2.20
2022-12-20T20:35:10.955Z,2.22
2022-12-20T20:37:37.677Z,2.88
2022-12-20T20:40:05.126Z,2.28
2022-12-20T20:42:31.675Z,2.38
2022-12-20T20:44:58.139Z,2.30
2022-12-20T20:47:24.638Z,2.40
2022-12-20T20:49:52.900Z,2.13
2022-12-20T20:52:19.784Z,2.17
2022-12-20T20:54:46.874Z,2.13
2022-12-20T20:57:13.659Z,2.05
2022-12-20T20:59:40.412Z,2.20
2022-12-20T21:02:07.021Z,2.22
2022-12-20T21:04:33.686Z,2.00
2022-12-20T21:07:00.389Z,2.10
2022-12-20T21:09:26.864Z,2.10
2022-12-20T21:11:53.612Z,1.92
2022-12-20T21:14:36.495Z,2.17
2022-12-20T21:17:06.704Z,2.20
2022-12-20T21:19:33.216Z,1.75
2022-12-20T21:21:59.719Z,2.08
2022-12-20T21:24:26.374Z,1.80
2022-12-20T21:26:55.105Z,2.20
2022-12-20T21:29:21.833Z,2.20
2022-12-20T21:31:48.512Z,1.83
2022-12-20T21:34:15.202Z,2.20
2022-12-20T21:36:41.748Z,2.08
2022-12-20T21:39:12.613Z,2.10
2022-12-20T21:41:39.783Z,2.08
2022-12-20T21:44:06.583Z,2.13
2022-12-20T21:46:33.796Z,2.25
2022-12-20T21:49:00.581Z,2.10
2022-12-20T21:51:28.128Z,1.80
2022-12-20T21:53:57.678Z,1.90
2022-12-20T21:56:26.428Z,2.13
2022-12-20T21:58:53.570Z,2.05
2022-12-20T22:01:22.919Z,1.92
2022-12-20T22:03:51.595Z,2.00
2022-12-20T22:06:18.457Z,1.90
2022-12-20T22:08:44.930Z,1.63
2022-12-20T22:11:13.492Z,1.77
2022-12-20T22:13:42.222Z,1.90
2022-12-20T22:16:11.160Z,2.05
2022-12-20T22:18:38.121Z,1.73
2022-12-20T22:21:06.378Z,1.70
2022-12-20T22:23:32.996Z,1.80
2022-12-20T22:26:04.005Z,1.83
2022-12-20T22:28:30.508Z,1.67
2022-12-20T22:30:57.585Z,1.80
2022-12-20T22:33:24.372Z,1.80
2022-12-20T22:35:50.938Z,1.40
2022-12-20T22:38:17.381Z,1.80
2022-12-20T22:40:44.402Z,1.90
2022-12-20T22:43:10.900Z,1.98
2022-12-20T22:45:37.945Z,1.60
2022-12-20T22:48:04.778Z,1.88
2022-12-20T22:50:31.213Z,1.77
2022-12-20T22:52:58.491Z,1.67
2022-12-20T22:55:25.291Z,1.75
2022-12-20T22:57:51.737Z,1.95
2022-12-20T23:00:18.322Z,1.90
2022-12-20T23:02:45.106Z,1.90
2022-12-20T23:05:12.368Z,1.80
2022-12-20T23:07:38.968Z,1.73
2022-12-20T23:10:25.857Z,1.70
2022-12-20T23:13:10.581Z,1.90
2022-12-20T23:15:42.817Z,1.85
2022-12-20T23:18:09.340Z,1.90
2022-12-20T23:20:54.390Z,1.58
2022-12-20T23:23:20.922Z,1.90
2022-12-20T23:25:47.437Z,1.80
2022-12-20T23:28:13.929Z,1.70
2022-12-20T23:30:40.522Z,1.90
2022-12-20T23:33:06.986Z,1.85
2022-12-20T23:35:33.543Z,1.65
2022-12-20T23:38:00.179Z,1.80
2022-12-20T23:40:26.745Z,1.50
2022-12-20T23:42:54.620Z,1.60
2022-12-20T23:45:21.235Z,1.80
2022-12-20T23:47:47.795Z,1.75
2022-12-20T23:50:14.293Z,1.60
2022-12-20T23:52:40.805Z,1.55
2022-12-20T23:55:07.715Z,1.83
2022-12-20T23:57:34.261Z,1.75
